East Lexington, Virginia
Current Conditions -  °F | °C
As of 4:35 AM on Tuesday 21 Oct 2014 (Local Time) from KHSP Reporting Station
Overcast Overcast  
Wind Chill: 41°   Ceiling: 700
Heat Index: 46°   Visibility: 10mi
Dew Point: 44°   Wind: 13mph
Humidity: 92%   Direction: 260°W
Pressure: 29.89"   Gusts: 17mph
Location:  37.7866°N, 79.5193°W
Report Text: KHSP 210835Z AUTO 26011G15KT 10SM BKN007 BKN011 OVC043 08/07 A2989 RMK AO2 T00800067
Loading
Personal Weather Stations






























Interactive Weather Map
Tropical Storm Tracking
New forecast layout! Learn more

10-Day Weather Forecast

Advertisements
Track Severe Weather on mobile